createdAt,value
2018-05-04T00:00:48.531Z,89.60
2018-05-04T00:03:15.960Z,89.30
2018-05-04T00:05:43.391Z,89.80
2018-05-04T00:08:10.820Z,89.80
2018-05-04T00:10:38.256Z,90.00
2018-05-04T00:13:05.676Z,90.20
2018-05-04T00:15:34.027Z,90.20
2018-05-04T00:18:01.460Z,90.60
2018-05-04T00:20:28.909Z,90.90
2018-05-04T00:22:57.122Z,90.80
2018-05-04T00:25:24.562Z,90.80
2018-05-04T00:27:51.996Z,90.80
2018-05-04T00:30:19.493Z,90.70
2018-05-04T00:32:46.924Z,90.70
2018-05-04T00:35:14.360Z,90.80
2018-05-04T00:37:42.544Z,90.80
2018-05-04T00:40:10.026Z,90.80
2018-05-04T00:42:37.446Z,91.00
2018-05-04T00:45:05.668Z,91.20
2018-05-04T00:47:34.047Z,91.10
2018-05-04T00:50:01.488Z,91.30
2018-05-04T00:52:28.925Z,91.50
2018-05-04T00:54:57.143Z,91.10
2018-05-04T00:57:24.589Z,91.10
2018-05-04T00:59:52.029Z,91.30
2018-05-04T01:02:19.450Z,91.00
2018-05-04T01:04:47.692Z,91.50
2018-05-04T01:07:15.147Z,91.50
2018-05-04T01:09:42.608Z,91.50
2018-05-04T01:12:10.049Z,91.60
2018-05-04T01:14:38.286Z,91.60
2018-05-04T01:17:06.498Z,91.60
2018-05-04T01:19:34.186Z,91.60
2018-05-04T01:22:01.619Z,91.70
2018-05-04T01:24:29.064Z,91.90
2018-05-04T01:26:56.506Z,91.80
2018-05-04T01:29:24.723Z,91.70
2018-05-04T01:31:52.162Z,91.70
2018-05-04T01:34:19.593Z,91.90
2018-05-04T01:36:47.816Z,92.10
2018-05-04T01:39:15.267Z,92.10
2018-05-04T01:41:42.700Z,92.00
2018-05-04T01:44:10.935Z,92.20
2018-05-04T01:46:38.367Z,92.20
2018-05-04T01:49:05.786Z,92.40
2018-05-04T01:51:34.139Z,92.30
2018-05-04T01:54:02.344Z,92.60
2018-05-04T01:56:29.821Z,92.60
2018-05-04T01:58:57.263Z,92.90
2018-05-04T02:01:24.692Z,93.00
2018-05-04T02:03:52.894Z,92.60
2018-05-04T02:06:20.374Z,92.60
2018-05-04T02:08:47.804Z,92.70
2018-05-04T02:11:15.238Z,92.80
2018-05-04T02:13:43.474Z,92.80
2018-05-04T02:16:10.927Z,92.70
2018-05-04T02:18:38.340Z,92.60
2018-05-04T02:21:05.839Z,92.60
2018-05-04T02:23:34.203Z,92.90
2018-05-04T02:26:01.632Z,93.10
2018-05-04T02:28:29.820Z,92.80
2018-05-04T02:30:57.257Z,92.80
2018-05-04T02:33:25.589Z,92.70
2018-05-04T02:35:53.042Z,92.60
2018-05-04T02:38:20.488Z,93.10
2018-05-04T02:40:47.962Z,93.10
2018-05-04T02:43:15.413Z,93.20
2018-05-04T02:45:42.881Z,93.30
2018-05-04T02:48:10.311Z,93.60
2018-05-04T02:50:37.749Z,93.60
2018-05-04T02:53:05.187Z,93.80
2018-05-04T02:55:32.775Z,93.60
2018-05-04T02:58:00.148Z,93.50
2018-05-04T03:00:27.582Z,93.20
2018-05-04T03:02:55.800Z,92.90
2018-05-04T03:05:23.237Z,92.80
2018-05-04T03:07:50.688Z,92.90
2018-05-04T03:10:18.168Z,93.30
2018-05-04T03:12:45.622Z,93.30
2018-05-04T03:15:13.060Z,93.20
2018-05-04T03:17:40.496Z,92.70
2018-05-04T03:20:08.336Z,92.70
2018-05-04T03:22:35.788Z,92.90
2018-05-04T03:25:03.323Z,93.30
2018-05-04T03:27:31.176Z,93.40
2018-05-04T03:29:58.624Z,93.70
2018-05-04T03:32:26.066Z,93.80
2018-05-04T03:34:54.255Z,93.70
2018-05-04T03:37:21.742Z,93.70
2018-05-04T03:39:49.195Z,93.90
2018-05-04T03:42:16.644Z,94.20
2018-05-04T03:44:44.067Z,94.60
2018-05-04T03:47:13.095Z,94.40
2018-05-04T03:49:40.544Z,94.40
2018-05-04T03:52:08.039Z,94.40
2018-05-04T03:54:35.487Z,94.20
2018-05-04T03:57:14.799Z,94.20
2018-05-04T03:59:54.139Z,94.00
2018-05-04T04:02:33.558Z,93.90
2018-05-04T04:05:00.947Z,93.90
2018-05-04T04:07:28.817Z,94.10
2018-05-04T04:09:57.064Z,94.30
2018-05-04T04:12:24.500Z,94.30
2018-05-04T04:14:52.697Z,94.50
2018-05-04T04:17:20.132Z,94.50
2018-05-04T04:19:48.329Z,94.40
2018-05-04T04:22:15.785Z,94.40
2018-05-04T04:24:43.222Z,94.50
2018-05-04T04:27:11.428Z,94.20
2018-05-04T04:29:38.888Z,94.20
2018-05-04T04:32:06.321Z,94.20
2018-05-04T04:34:34.553Z,94.20
2018-05-04T04:37:01.979Z,94.30
2018-05-04T04:39:29.424Z,94.30
2018-05-04T04:41:57.316Z,94.30
2018-05-04T04:44:25.525Z,94.30
2018-05-04T04:46:53.720Z,94.00
2018-05-04T04:49:21.948Z,94.10
2018-05-04T04:51:49.384Z,93.80
2018-05-04T04:54:17.958Z,93.90
2018-05-04T04:56:46.259Z,93.70
2018-05-04T04:59:13.704Z,93.80
2018-05-04T05:01:41.907Z,93.80
2018-05-04T05:04:09.370Z,93.80
2018-05-04T05:06:36.797Z,93.70
2018-05-04T05:09:05.008Z,93.70
2018-05-04T05:11:33.192Z,93.80
2018-05-04T05:14:00.632Z,93.60
2018-05-04T05:16:28.057Z,93.90
2018-05-04T05:18:55.492Z,93.70
2018-05-04T05:21:23.772Z,93.60
2018-05-04T05:23:51.998Z,93.50
2018-05-04T05:26:19.428Z,93.50
2018-05-04T05:28:47.625Z,93.00
2018-05-04T05:31:15.060Z,93.10
2018-05-04T05:33:42.505Z,92.80
2018-05-04T05:36:10.405Z,92.70
2018-05-04T05:38:38.260Z,92.50
2018-05-04T05:41:06.617Z,92.50
2018-05-04T05:43:34.830Z,92.60
2018-05-04T05:46:02.261Z,92.50
2018-05-04T05:48:30.105Z,92.30
2018-05-04T05:50:57.614Z,92.30
2018-05-04T05:53:25.439Z,92.00
2018-05-04T05:55:52.900Z,91.90
2018-05-04T05:58:20.733Z,91.70
2018-05-04T06:00:48.940Z,91.70
2018-05-04T06:03:17.131Z,91.50
2018-05-04T06:05:45.328Z,91.80
2018-05-04T06:08:12.861Z,91.50
2018-05-04T06:10:40.672Z,91.40
2018-05-04T06:13:08.115Z,91.10
2018-05-04T06:15:35.548Z,90.40
2018-05-04T06:18:02.983Z,89.80
2018-05-04T06:20:30.804Z,89.30
2018-05-04T06:22:58.635Z,87.90
2018-05-04T06:25:26.068Z,88.40
2018-05-04T06:27:53.531Z,88.40
2018-05-04T06:30:21.739Z,86.20
2018-05-04T06:32:49.167Z,82.90
2018-05-04T06:35:16.611Z,71.10
2018-05-04T06:37:44.055Z,70.90
2018-05-04T06:40:12.260Z,58.50
2018-05-04T06:42:39.715Z,58.40
2018-05-04T06:45:07.148Z,55.40
2018-05-04T06:47:34.876Z,53.00
2018-05-04T06:50:02.311Z,50.60
2018-05-04T06:52:29.783Z,50.90
2018-05-04T06:54:57.322Z,49.10
2018-05-04T06:57:24.777Z,46.50
2018-05-04T06:59:52.203Z,44.40
2018-05-04T07:02:20.411Z,42.30
2018-05-04T07:04:47.856Z,42.30
2018-05-04T07:07:15.348Z,40.60
2018-05-04T07:09:42.793Z,39.60
2018-05-04T07:12:10.223Z,37.90
2018-05-04T07:14:37.667Z,37.70
2018-05-04T07:17:05.882Z,40.40
2018-05-04T07:19:33.339Z,40.30
2018-05-04T07:22:00.801Z,42.50
2018-05-04T07:24:28.271Z,44.20
2018-05-04T07:26:55.700Z,43.30
2018-05-04T07:29:23.205Z,44.00
2018-05-04T07:31:50.639Z,44.60
2018-05-04T07:34:18.083Z,44.50
2018-05-04T07:36:45.556Z,43.00
2018-05-04T07:39:13.000Z,43.40
2018-05-04T07:41:40.477Z,43.20
2018-05-04T07:44:07.917Z,42.90
2018-05-04T07:46:35.355Z,43.30
2018-05-04T07:49:02.832Z,41.40
2018-05-04T07:51:30.297Z,38.80
2018-05-04T07:53:57.741Z,36.60
2018-05-04T07:56:41.864Z,35.60
2018-05-04T07:59:09.328Z,35.10
2018-05-04T08:01:37.500Z,31.60
2018-05-04T08:04:04.985Z,31.50
2018-05-04T08:06:32.427Z,29.00
2018-05-04T08:08:59.864Z,28.60
2018-05-04T08:11:28.093Z,27.30
2018-05-04T08:13:55.544Z,26.70
2018-05-04T08:16:22.975Z,26.30
2018-05-04T08:18:50.400Z,26.00
2018-05-04T08:21:18.623Z,26.80
2018-05-04T08:23:46.065Z,26.80
2018-05-04T08:26:13.516Z,26.90
2018-05-04T08:28:41.004Z,27.50
2018-05-04T08:31:08.443Z,27.10
2018-05-04T08:33:35.972Z,27.00
2018-05-04T08:36:03.372Z,26.20
2018-05-04T08:38:30.787Z,25.50
2018-05-04T08:40:59.004Z,24.70
2018-05-04T08:43:26.451Z,24.70
2018-05-04T08:45:53.919Z,25.30
2018-05-04T08:48:21.374Z,24.10
2018-05-04T08:50:48.802Z,24.50
2018-05-04T08:53:16.985Z,23.70
2018-05-04T08:55:44.484Z,23.70
2018-05-04T08:58:11.924Z,22.90
2018-05-04T09:00:39.376Z,22.20
2018-05-04T09:03:06.803Z,23.30
2018-05-04T09:05:35.945Z,24.60
2018-05-04T09:08:03.403Z,24.10
2018-05-04T09:10:30.857Z,24.10
2018-05-04T09:12:58.280Z,24.20
2018-05-04T09:15:25.774Z,23.50
2018-05-04T09:17:53.206Z,24.40
2018-05-04T09:20:21.066Z,24.80
2018-05-04T09:22:49.281Z,23.30
2018-05-04T09:25:16.783Z,23.50
2018-05-04T09:27:44.155Z,24.50
2018-05-04T09:30:11.975Z,24.40
2018-05-04T09:32:40.912Z,23.80
2018-05-04T09:35:08.351Z,24.20
2018-05-04T09:37:36.548Z,24.10
2018-05-04T09:40:03.985Z,24.10
2018-05-04T09:42:32.199Z,24.10
2018-05-04T09:44:59.675Z,24.10
2018-05-04T09:47:27.109Z,23.90
2018-05-04T09:49:54.592Z,22.70
2018-05-04T09:52:22.039Z,22.90
2018-05-04T09:57:18.282Z,23.30
2018-05-04T09:59:46.635Z,22.90
2018-05-04T10:02:14.128Z,22.50
2018-05-04T10:04:41.568Z,23.20
2018-05-04T10:07:09.028Z,23.00
2018-05-04T10:09:36.460Z,23.50
2018-05-04T10:12:03.955Z,23.80
2018-05-04T10:14:31.398Z,23.30
2018-05-04T10:16:58.835Z,21.00
2018-05-04T10:19:26.269Z,21.40
2018-05-04T10:21:54.555Z,22.30
2018-05-04T10:24:21.922Z,21.70
2018-05-04T10:26:49.357Z,22.30
2018-05-04T10:29:16.792Z,21.00
2018-05-04T10:31:44.236Z,21.50
2018-05-04T10:34:11.700Z,20.30
2018-05-04T10:36:39.147Z,21.30
2018-05-04T10:39:06.580Z,22.20
2018-05-04T10:41:34.007Z,21.90
2018-05-04T10:44:02.207Z,21.80
2018-05-04T10:46:29.673Z,21.70
2018-05-04T10:48:57.107Z,21.40
2018-05-04T10:51:25.319Z,21.20
2018-05-04T10:53:52.753Z,20.60
2018-05-04T10:56:20.952Z,22.30
2018-05-04T10:58:48.372Z,22.30
2018-05-04T11:01:16.580Z,23.60
2018-05-04T11:03:44.008Z,23.50
2018-05-04T11:06:12.209Z,22.60
2018-05-04T11:08:39.649Z,22.60
2018-05-04T11:11:07.845Z,22.40
2018-05-04T11:13:36.220Z,22.50
2018-05-04T11:16:03.674Z,23.40
2018-05-04T11:18:31.147Z,24.80
2018-05-04T11:20:58.592Z,25.80
2018-05-04T11:23:26.025Z,25.30
2018-05-04T11:25:53.503Z,26.60
2018-05-04T11:28:20.950Z,26.80
2018-05-04T11:30:49.161Z,26.30
2018-05-04T11:33:16.587Z,26.80
2018-05-04T11:35:44.020Z,27.30
2018-05-04T11:38:12.229Z,28.00
2018-05-04T11:40:39.657Z,27.50
2018-05-04T11:43:07.840Z,27.60
2018-05-04T11:45:35.444Z,27.60
2018-05-04T11:48:02.896Z,27.20
2018-05-04T11:50:31.093Z,28.20
2018-05-04T11:52:58.527Z,28.20
2018-05-04T11:55:26.016Z,27.70
2018-05-04T11:57:53.623Z,27.90
2018-05-04T12:00:21.209Z,27.50
2018-05-04T12:02:48.753Z,27.00
2018-05-04T12:05:16.318Z,26.50
2018-05-04T12:07:43.788Z,26.20
2018-05-04T12:10:11.223Z,27.90
2018-05-04T12:12:38.651Z,27.40
2018-05-04T12:15:06.851Z,26.70
2018-05-04T12:17:34.275Z,26.70
2018-05-04T12:20:02.476Z,26.70
2018-05-04T12:22:29.914Z,26.60
2018-05-04T12:24:58.110Z,26.60
2018-05-04T12:27:25.556Z,26.60
2018-05-04T12:29:53.769Z,26.40
2018-05-04T12:32:21.215Z,26.40
2018-05-04T12:34:48.649Z,25.80
2018-05-04T12:37:16.105Z,26.30
2018-05-04T12:39:44.315Z,27.00
2018-05-04T12:42:11.732Z,26.90
2018-05-04T12:44:39.960Z,27.80
2018-05-04T12:49:59.621Z,26.70
2018-05-04T12:52:27.047Z,26.70
2018-05-04T12:57:45.976Z,25.70
2018-05-04T13:00:13.412Z,27.60
2018-05-04T13:02:40.851Z,26.00
2018-05-04T13:05:09.043Z,25.70
2018-05-04T13:07:36.480Z,25.70
2018-05-04T13:10:04.680Z,25.00
2018-05-04T13:12:32.124Z,24.90
2018-05-04T13:14:59.562Z,25.80
2018-05-04T13:17:27.044Z,26.10
2018-05-04T13:19:54.432Z,26.40
2018-05-04T13:22:21.878Z,26.10
2018-05-04T13:24:50.073Z,27.00
2018-05-04T13:27:17.503Z,27.10
2018-05-04T13:29:44.946Z,27.60
2018-05-04T13:32:13.139Z,26.90
2018-05-04T13:34:40.569Z,26.80
2018-05-04T13:37:08.771Z,26.80
2018-05-04T13:39:36.195Z,26.80
2018-05-04T13:42:04.405Z,25.90
2018-05-04T13:44:31.835Z,25.90
2018-05-04T13:46:59.266Z,26.60
2018-05-04T13:49:26.704Z,27.00
2018-05-04T13:51:54.144Z,28.00
2018-05-04T13:54:21.609Z,27.70
2018-05-04T13:56:49.036Z,26.90
2018-05-04T13:59:16.479Z,27.30
2018-05-04T14:01:44.673Z,25.90
2018-05-04T14:04:12.125Z,25.90
2018-05-04T14:06:39.572Z,26.40
2018-05-04T14:09:08.539Z,26.90
2018-05-04T14:11:35.968Z,26.90
2018-05-04T14:14:03.416Z,26.30
2018-05-04T14:16:30.839Z,26.20
2018-05-04T14:18:58.286Z,26.80
2018-05-04T14:21:26.479Z,27.20
2018-05-04T14:23:53.916Z,27.20
2018-05-04T14:26:22.138Z,26.50
2018-05-04T14:28:50.345Z,27.00
2018-05-04T14:31:17.820Z,27.00
2018-05-04T14:33:46.025Z,27.20
2018-05-04T14:36:13.504Z,27.20
2018-05-04T14:38:40.941Z,27.10
2018-05-04T14:41:08.368Z,27.60
2018-05-04T14:43:36.680Z,28.80
2018-05-04T14:46:04.129Z,28.80
2018-05-04T14:48:31.596Z,28.00
2018-05-04T14:50:59.048Z,29.20
2018-05-04T14:53:26.516Z,29.20
2018-05-04T14:55:53.951Z,29.00
2018-05-04T14:58:22.144Z,29.20
2018-05-04T15:00:49.567Z,29.20
2018-05-04T15:03:17.804Z,28.80
2018-05-04T15:05:45.252Z,28.80
2018-05-04T15:08:12.672Z,29.30
2018-05-04T15:10:40.107Z,29.10
2018-05-04T15:13:07.552Z,28.90
2018-05-04T15:15:36.667Z,30.20
2018-05-04T15:18:05.022Z,29.50
2018-05-04T15:20:32.401Z,29.50
2018-05-04T15:23:00.620Z,30.60
2018-05-04T15:25:28.062Z,30.50
2018-05-04T15:27:56.036Z,29.50
2018-05-04T15:30:23.475Z,29.80
2018-05-04T15:32:51.667Z,29.10
2018-05-04T15:35:19.113Z,29.10
2018-05-04T15:37:46.538Z,30.20
2018-05-04T15:40:13.974Z,29.10
2018-05-04T15:42:41.402Z,30.20
2018-05-04T15:45:08.848Z,30.50
2018-05-04T15:47:36.277Z,30.40
2018-05-04T15:50:10.116Z,31.00
2018-05-04T15:52:37.564Z,31.00
2018-05-04T15:55:05.764Z,30.70
2018-05-04T15:57:33.185Z,30.70
2018-05-04T16:00:01.423Z,30.00
2018-05-04T16:02:28.847Z,30.00
2018-05-04T16:04:56.287Z,30.50
2018-05-04T16:07:23.727Z,30.40
2018-05-04T16:12:25.912Z,30.40
2018-05-04T16:14:53.327Z,30.50
2018-05-04T16:17:21.145Z,30.00
2018-05-04T16:19:48.993Z,30.20
2018-05-04T16:22:16.434Z,30.70
2018-05-04T16:24:43.871Z,30.00
2018-05-04T16:27:11.310Z,30.00
2018-05-04T16:29:38.745Z,30.70
2018-05-04T16:32:06.179Z,31.10
2018-05-04T16:34:34.400Z,33.50
2018-05-04T16:37:01.819Z,32.90
2018-05-04T16:39:30.027Z,32.00
2018-05-04T16:41:57.465Z,32.00
2018-05-04T16:44:25.786Z,32.10
2018-05-04T16:46:58.904Z,32.10
2018-05-04T16:49:26.377Z,33.30
2018-05-04T16:51:53.811Z,32.50
2018-05-04T16:54:21.248Z,32.50
2018-05-04T16:56:48.675Z,32.60
2018-05-04T16:59:16.112Z,32.80
2018-05-04T17:01:44.300Z,33.00
2018-05-04T17:04:11.754Z,33.00
2018-05-04T17:06:39.935Z,33.30
2018-05-04T17:09:07.450Z,33.30
2018-05-04T17:11:36.535Z,34.10
2018-05-04T17:14:04.783Z,33.70
2018-05-04T17:16:32.211Z,33.60
2018-05-04T17:19:01.152Z,33.50
2018-05-04T17:21:28.987Z,34.00
2018-05-04T17:23:56.424Z,33.80
2018-05-04T17:26:24.632Z,33.50
2018-05-04T17:28:52.055Z,34.60
2018-05-04T17:31:20.259Z,35.30
2018-05-04T17:33:48.095Z,34.40
2018-05-04T17:36:15.929Z,34.70
2018-05-04T17:38:43.354Z,34.50
2018-05-04T17:41:10.796Z,34.70
2018-05-04T17:43:38.228Z,34.50
2018-05-04T17:46:06.068Z,35.70
2018-05-04T17:48:33.495Z,35.40
2018-05-04T17:51:00.968Z,35.80
2018-05-04T17:53:28.406Z,36.30
2018-05-04T17:55:56.233Z,36.80
2018-05-04T17:58:24.437Z,36.90
2018-05-04T18:00:51.869Z,35.70
2018-05-04T18:03:20.072Z,36.50
2018-05-04T18:05:48.275Z,35.80
2018-05-04T18:08:15.718Z,36.20
2018-05-04T18:10:43.196Z,38.50
2018-05-04T18:13:11.421Z,37.40
2018-05-04T18:15:39.995Z,37.90
2018-05-04T18:18:08.944Z,39.10
2018-05-04T18:20:37.140Z,37.50
2018-05-04T18:23:04.986Z,38.90
2018-05-04T18:25:32.815Z,37.30
2018-05-04T18:28:01.028Z,38.70
2018-05-04T18:30:28.876Z,37.80
2018-05-04T18:35:25.863Z,39.00
2018-05-04T18:37:54.820Z,38.50
2018-05-04T18:40:22.659Z,39.30
2018-05-04T18:42:50.856Z,39.40
2018-05-04T18:45:18.689Z,38.50
2018-05-04T18:47:46.885Z,39.30
2018-05-04T18:50:14.726Z,39.40
2018-05-04T18:52:43.659Z,39.10
2018-05-04T18:57:40.636Z,39.70
2018-05-04T19:00:08.899Z,40.10
2018-05-04T19:07:42.684Z,40.50
2018-05-04T19:10:11.631Z,40.90
2018-05-04T19:22:36.457Z,41.90
2018-05-04T19:30:04.672Z,42.00
2018-05-04T19:37:29.680Z,43.70
2018-05-04T19:39:58.683Z,43.10
2018-05-04T19:44:55.598Z,42.60
2018-05-04T19:52:21.719Z,43.40
2018-05-04T19:57:18.702Z,43.30
2018-05-04T20:07:12.548Z,43.90
2018-05-04T20:09:39.931Z,43.60
2018-05-04T20:12:07.772Z,43.20
2018-05-04T20:14:35.199Z,43.50
2018-05-04T20:17:04.153Z,44.70
2018-05-04T20:22:02.135Z,45.30
2018-05-04T20:24:30.731Z,45.00
2018-05-04T20:26:58.919Z,45.10
2018-05-04T20:29:26.371Z,45.10
2018-05-04T20:31:54.575Z,45.00
2018-05-04T20:34:23.191Z,45.30
2018-05-04T20:36:51.479Z,46.00
2018-05-04T20:39:18.917Z,46.40
2018-05-04T20:44:15.956Z,46.60
2018-05-04T20:46:44.090Z,46.10
2018-05-04T20:49:12.291Z,46.50
2018-05-04T20:51:40.116Z,46.30
2018-05-04T20:54:09.055Z,47.10
2018-05-04T20:56:36.608Z,47.00
2018-05-04T20:59:04.045Z,47.50
2018-05-04T21:01:31.886Z,47.90
2018-05-04T21:03:59.385Z,48.40
2018-05-04T21:06:27.577Z,48.30
2018-05-04T21:08:55.420Z,48.40
2018-05-04T21:11:24.092Z,49.70
2018-05-04T21:13:51.534Z,48.80
2018-05-04T21:16:18.981Z,49.60
2018-05-04T21:18:46.420Z,50.20
2018-05-04T21:23:43.408Z,50.50
2018-05-04T21:26:11.244Z,51.50
2018-05-04T21:28:39.445Z,51.10
2018-05-04T21:31:07.272Z,51.00
2018-05-04T21:33:35.496Z,51.00
2018-05-04T21:36:03.009Z,50.50
2018-05-04T21:38:31.298Z,51.10
2018-05-04T21:40:58.673Z,51.70
2018-05-04T21:43:26.587Z,51.70
2018-05-04T21:45:54.038Z,51.90
2018-05-04T21:48:21.471Z,53.40
2018-05-04T21:50:48.944Z,54.50
2018-05-04T21:53:16.770Z,55.20
2018-05-04T21:55:44.979Z,55.90
2018-05-04T21:58:12.818Z,55.70
2018-05-04T22:00:40.252Z,56.20
2018-05-04T22:03:08.455Z,56.30
2018-05-04T22:05:36.808Z,56.50
2018-05-04T22:08:05.043Z,57.90
2018-05-04T22:10:32.497Z,58.40
2018-05-04T22:12:59.935Z,59.20
2018-05-04T22:15:29.013Z,59.50
2018-05-04T22:17:56.404Z,59.50
2018-05-04T22:20:24.278Z,62.00
2018-05-04T22:22:51.715Z,65.40
2018-05-04T22:25:19.193Z,66.10
2018-05-04T22:27:46.635Z,66.00
2018-05-04T22:30:14.073Z,65.00
2018-05-04T22:32:42.285Z,67.70
2018-05-04T22:35:09.721Z,67.70
2018-05-04T22:37:37.160Z,68.90
2018-05-04T22:40:04.584Z,68.10
2018-05-04T22:42:32.021Z,69.10
2018-05-04T22:44:59.469Z,69.80
2018-05-04T22:47:26.923Z,70.40
2018-05-04T22:49:54.366Z,71.90
2018-05-04T22:52:21.824Z,73.20
2018-05-04T22:54:49.251Z,74.80
2018-05-04T22:57:17.449Z,76.60
2018-05-04T22:59:44.887Z,76.60
2018-05-04T23:02:12.329Z,76.80
2018-05-04T23:04:40.531Z,78.30
2018-05-04T23:07:08.021Z,78.30
2018-05-04T23:09:35.464Z,77.70
2018-05-04T23:12:02.926Z,78.10
2018-05-04T23:14:30.429Z,77.70
2018-05-04T23:16:57.848Z,78.50
2018-05-04T23:19:25.312Z,79.10
2018-05-04T23:21:52.749Z,80.30
2018-05-04T23:24:20.184Z,80.60
2018-05-04T23:26:47.644Z,81.70
2018-05-04T23:29:15.102Z,81.40
2018-05-04T23:31:42.907Z,81.20
2018-05-04T23:34:10.344Z,80.70
2018-05-04T23:36:37.823Z,81.50
2018-05-04T23:39:05.276Z,81.60
2018-05-04T23:41:32.713Z,82.40
2018-05-04T23:44:00.151Z,82.20
2018-05-04T23:46:27.647Z,82.80
2018-05-04T23:48:55.097Z,83.80
2018-05-04T23:51:22.509Z,83.20
2018-05-04T23:53:50.721Z,83.20
2018-05-04T23:56:18.196Z,83.20
2018-05-04T23:58:45.628Z,84.40
